Time;durP1;ratioP1;P1;durP2;ratioP2;P2;SDS_P1;SDS_P2;PMS_P1;PMS_P2;Temp;Humidity;BMP_temperature;BMP_pressure;BME280_temperature;BME280_humidity;BME280_pressure;Samples;Min_cycle;Max_cycle;Signal;HPM_P1;HPM_P2
2023/08/03 00:02:20;;;;;;;5.10;2.10;;;;;;;;;;5034211;28;20182;-66
2023/08/03 00:04:46;;;;;;;4.03;2.20;;;;;;;;;;5034264;28;20198;-65
2023/08/03 00:07:12;;;;;;;6.77;2.23;;;;;;;;;;5016299;28;20719;-65
2023/08/03 00:09:39;;;;;;;3.77;1.87;;;;;;;;;;5034032;28;20252;-65
2023/08/03 00:12:06;;;;;;;3.70;1.70;;;;;;;;;;5016416;28;20174;-65
2023/08/03 00:14:32;;;;;;;5.00;2.20;;;;;;;;;;5014959;28;20829;-65
2023/08/03 00:16:58;;;;;;;5.28;2.08;;;;;;;;;;5032934;28;20395;-65
2023/08/03 00:19:24;;;;;;;6.38;2.40;;;;;;;;;;5014940;28;20390;-65
2023/08/03 00:21:50;;;;;;;4.57;2.42;;;;;;;;;;5015310;28;20458;-66
2023/08/03 00:24:16;;;;;;;5.97;2.67;;;;;;;;;;5015008;28;20399;-65
2023/08/03 00:26:42;;;;;;;4.30;2.10;;;;;;;;;;5032786;28;20406;-65
2023/08/03 00:29:08;;;;;;;6.20;2.30;;;;;;;;;;5014822;28;20483;-65
2023/08/03 00:31:34;;;;;;;4.15;2.10;;;;;;;;;;5032569;28;20457;-66
2023/08/03 00:34:00;;;;;;;5.43;2.30;;;;;;;;;;5032618;28;20389;-65
2023/08/03 00:36:25;;;;;;;5.03;2.50;;;;;;;;;;5032730;28;20383;-65
2023/08/03 00:38:51;;;;;;;4.55;2.13;;;;;;;;;;5014608;28;20402;-65
2023/08/03 00:41:17;;;;;;;5.88;2.40;;;;;;;;;;5032413;28;20490;-65
2023/08/03 00:43:43;;;;;;;5.57;2.40;;;;;;;;;;5014647;28;20391;-65
2023/08/03 00:46:09;;;;;;;5.65;2.58;;;;;;;;;;5032172;28;20433;-65
2023/08/03 00:48:35;;;;;;;4.18;2.30;;;;;;;;;;5014642;28;20485;-65
2023/08/03 00:51:01;;;;;;;5.17;2.13;;;;;;;;;;5032248;28;20501;-65
2023/08/03 00:53:27;;;;;;;2.78;1.98;;;;;;;;;;5032303;28;20383;-65
2023/08/03 00:55:53;;;;;;;3.33;1.98;;;;;;;;;;5032123;28;20381;-65
2023/08/03 00:58:19;;;;;;;4.47;2.17;;;;;;;;;;5032485;28;20535;-65
2023/08/03 01:00:45;;;;;;;3.57;2.20;;;;;;;;;;5032094;28;20748;-66
2023/08/03 01:03:11;;;;;;;3.33;1.80;;;;;;;;;;5032220;28;20873;-65
2023/08/03 01:05:37;;;;;;;4.93;2.22;;;;;;;;;;5031977;28;20434;-66
2023/08/03 01:08:03;;;;;;;3.22;1.90;;;;;;;;;;5031972;28;20379;-66
2023/08/03 01:10:30;;;;;;;4.68;2.08;;;;;;;;;;5014393;28;20383;-66
2023/08/03 01:12:56;;;;;;;4.73;2.10;;;;;;;;;;5014573;28;20409;-66
2023/08/03 01:15:22;;;;;;;4.07;2.10;;;;;;;;;;5032172;28;20379;-66
2023/08/03 01:17:48;;;;;;;4.32;2.20;;;;;;;;;;5032083;28;20403;-66
2023/08/03 01:20:15;;;;;;;3.80;2.00;;;;;;;;;;5014375;28;20866;-66
2023/08/03 01:22:42;;;;;;;4.65;2.30;;;;;;;;;;5032234;28;20440;-66
2023/08/03 01:25:08;;;;;;;4.43;2.00;;;;;;;;;;5031875;28;20375;-66
2023/08/03 01:27:34;;;;;;;3.45;2.10;;;;;;;;;;5014024;28;20469;-66
2023/08/03 01:30:00;;;;;;;5.35;2.00;;;;;;;;;;5031880;28;20409;-66
2023/08/03 01:32:26;;;;;;;3.95;2.20;;;;;;;;;;5014143;28;20749;-65
2023/08/03 01:34:52;;;;;;;4.20;2.20;;;;;;;;;;5014234;28;20379;-65
2023/08/03 01:37:18;;;;;;;3.47;2.10;;;;;;;;;;5034194;28;20397;-65
2023/08/03 01:39:45;;;;;;;4.22;2.22;;;;;;;;;;5035771;28;20869;-65
2023/08/03 01:42:11;;;;;;;5.35;2.65;;;;;;;;;;5017899;28;20385;-65
2023/08/03 01:44:38;;;;;;;5.18;2.60;;;;;;;;;;5036012;28;20899;-65
2023/08/03 01:47:04;;;;;;;5.70;2.80;;;;;;;;;;5018060;28;20406;-65
2023/08/03 01:49:31;;;;;;;6.28;3.05;;;;;;;;;;5035438;28;20387;-65
2023/08/03 01:51:57;;;;;;;7.55;3.03;;;;;;;;;;5017581;28;20501;-65
2023/08/03 01:54:23;;;;;;;9.07;3.17;;;;;;;;;;5017707;28;20916;-65
2023/08/03 01:56:49;;;;;;;7.40;3.08;;;;;;;;;;5035447;28;20379;-65
2023/08/03 01:59:16;;;;;;;7.65;3.00;;;;;;;;;;5017581;28;20947;-65
2023/08/03 02:01:42;;;;;;;4.97;2.60;;;;;;;;;;5017713;28;20449;-65
2023/08/03 02:04:08;;;;;;;7.55;2.80;;;;;;;;;;5035454;28;20379;-65
2023/08/03 02:06:34;;;;;;;9.07;3.10;;;;;;;;;;5035543;28;20411;-65
2023/08/03 02:09:00;;;;;;;7.38;2.70;;;;;;;;;;5017437;28;20383;-66
2023/08/03 02:11:26;;;;;;;5.95;2.85;;;;;;;;;;5018752;28;20782;-65
2023/08/03 02:13:52;;;;;;;10.23;3.08;;;;;;;;;;5035330;28;20414;-65
2023/08/03 02:16:18;;;;;;;7.20;3.00;;;;;;;;;;5017711;28;20410;-65
2023/08/03 02:18:44;;;;;;;7.07;2.55;;;;;;;;;;5035081;28;20383;-65
2023/08/03 02:21:10;;;;;;;8.65;2.85;;;;;;;;;;5035132;28;20819;-66
2023/08/03 02:23:36;;;;;;;7.65;3.00;;;;;;;;;;5017202;28;20375;-66
2023/08/03 02:26:03;;;;;;;6.28;2.80;;;;;;;;;;5034980;28;20405;-65
2023/08/03 02:28:32;;;;;;;7.03;3.10;;;;;;;;;;5034943;28;20395;-65
2023/08/03 02:30:58;;;;;;;6.57;2.90;;;;;;;;;;5017034;28;20394;-65
2023/08/03 02:33:24;;;;;;;6.67;2.63;;;;;;;;;;5017080;28;20458;-65
2023/08/03 02:35:50;;;;;;;7.35;2.97;;;;;;;;;;5034711;28;20474;-65
2023/08/03 02:38:16;;;;;;;5.97;3.00;;;;;;;;;;5017871;28;20261;-64
2023/08/03 02:40:42;;;;;;;9.33;3.40;;;;;;;;;;5036000;28;20653;-64
2023/08/03 02:43:08;;;;;;;9.07;3.70;;;;;;;;;;5018047;28;20183;-65
2023/08/03 02:45:34;;;;;;;9.83;3.67;;;;;;;;;;5036030;28;20290;-65
2023/08/03 02:48:00;;;;;;;12.13;3.50;;;;;;;;;;5017085;28;20707;-65
2023/08/03 02:50:26;;;;;;;9.83;3.70;;;;;;;;;;5035754;28;20175;-65
2023/08/03 02:52:52;;;;;;;7.00;3.47;;;;;;;;;;5017968;28;20224;-65
2023/08/03 02:55:18;;;;;;;10.80;3.17;;;;;;;;;;5017841;28;20646;-65
2023/08/03 02:57:44;;;;;;;11.53;3.90;;;;;;;;;;5017717;28;20191;-66
2023/08/03 03:00:10;;;;;;;8.37;3.20;;;;;;;;;;5017797;28;20175;-65
2023/08/03 03:02:36;;;;;;;9.07;3.27;;;;;;;;;;5017780;28;20675;-66
2023/08/03 03:05:02;;;;;;;10.17;3.50;;;;;;;;;;5017597;28;20179;-66
2023/08/03 03:07:33;;;;;;;9.10;3.37;;;;;;;;;;5035290;28;20634;-65
2023/08/03 03:09:58;;;;;;;7.20;3.20;;;;;;;;;;5035504;28;20175;-65
2023/08/03 03:12:24;;;;;;;14.30;3.23;;;;;;;;;;5017579;28;20241;-65
2023/08/03 03:14:50;;;;;;;9.63;3.50;;;;;;;;;;5035310;28;20182;-65
2023/08/03 03:17:16;;;;;;;9.13;3.57;;;;;;;;;;5036355;28;20254;-65
2023/08/03 03:19:42;;;;;;;11.17;3.07;;;;;;;;;;5035609;28;20257;-65
2023/08/03 03:22:08;;;;;;;7.33;3.23;;;;;;;;;;5035271;28;20675;-64
2023/08/03 03:24:34;;;;;;;14.33;3.90;;;;;;;;;;5035067;28;20194;-65
2023/08/03 03:27:00;;;;;;;9.97;3.73;;;;;;;;;;5017270;28;20605;-66
2023/08/03 03:29:26;;;;;;;13.27;3.40;;;;;;;;;;5017174;28;20195;-65
2023/08/03 03:31:52;;;;;;;12.07;3.67;;;;;;;;;;5017127;28;20171;-65
2023/08/03 03:34:18;;;;;;;8.17;2.90;;;;;;;;;;5034851;28;20187;-65
2023/08/03 03:36:44;;;;;;;10.63;3.30;;;;;;;;;;5017041;28;20202;-65
2023/08/03 03:39:10;;;;;;;10.97;2.70;;;;;;;;;;5016932;28;20309;-65
2023/08/03 03:41:36;;;;;;;11.70;3.00;;;;;;;;;;5034814;28;20182;-66
2023/08/03 03:44:02;;;;;;;4.63;2.50;;;;;;;;;;5017036;28;20193;-65
2023/08/03 03:46:28;;;;;;;8.93;2.80;;;;;;;;;;5064182;22;20292;-70
2023/08/03 03:48:54;;;;;;;7.03;3.00;;;;;;;;;;5036533;28;20232;-70
2023/08/03 03:51:21;;;;;;;7.03;2.90;;;;;;;;;;5054327;28;20174;-70
2023/08/03 03:53:47;;;;;;;4.10;2.07;;;;;;;;;;5054337;28;20197;-70
2023/08/03 03:56:13;;;;;;;5.37;2.50;;;;;;;;;;5036357;28;20260;-70
2023/08/03 03:58:39;;;;;;;4.27;2.47;;;;;;;;;;5054172;28;20178;-70
2023/08/03 04:01:05;;;;;;;5.00;2.23;;;;;;;;;;5054007;28;20182;-70
2023/08/03 04:03:31;;;;;;;7.63;2.70;;;;;;;;;;5053973;28;20182;-70
2023/08/03 04:05:58;;;;;;;3.73;2.40;;;;;;;;;;5036025;28;20224;-70
2023/08/03 04:08:24;;;;;;;6.10;2.43;;;;;;;;;;5053948;28;20174;-70
2023/08/03 04:10:49;;;;;;;4.47;2.10;;;;;;;;;;5053855;28;20667;-70
2023/08/03 04:13:15;;;;;;;6.90;2.40;;;;;;;;;;5053951;28;20181;-70
2023/08/03 04:15:41;;;;;;;3.93;1.87;;;;;;;;;;5035925;28;20218;-70
2023/08/03 04:18:07;;;;;;;5.23;2.30;;;;;;;;;;5053865;28;20188;-70
2023/08/03 04:20:33;;;;;;;6.40;2.27;;;;;;;;;;5035938;28;20241;-70
2023/08/03 04:22:59;;;;;;;6.43;1.83;;;;;;;;;;5053934;28;20192;-70
2023/08/03 04:25:25;;;;;;;5.00;2.30;;;;;;;;;;5036550;28;20186;-70
2023/08/03 04:27:51;;;;;;;9.27;2.10;;;;;;;;;;5036519;28;20573;-70
2023/08/03 04:30:17;;;;;;;4.77;1.97;;;;;;;;;;5054028;28;20179;-70
2023/08/03 04:32:43;;;;;;;4.70;2.00;;;;;;;;;;5053509;28;20540;-70
2023/08/03 04:35:10;;;;;;;5.80;2.00;;;;;;;;;;5053745;28;20182;-70
2023/08/03 04:37:36;;;;;;;4.07;1.80;;;;;;;;;;5035538;28;20672;-70
2023/08/03 04:40:04;;;;;;;7.10;2.40;;;;;;;;;;5035502;28;20269;-70
2023/08/03 04:42:29;;;;;;;9.97;2.20;;;;;;;;;;5035672;28;20200;-69
2023/08/03 04:44:56;;;;;;;4.30;1.80;;;;;;;;;;5035567;28;20178;-72
2023/08/03 04:47:22;;;;;;;4.40;2.00;;;;;;;;;;5053042;28;20243;-69
2023/08/03 04:49:48;;;;;;;6.57;2.27;;;;;;;;;;5053229;28;20271;-71
2023/08/03 04:52:14;;;;;;;5.70;2.17;;;;;;;;;;5053217;28;20178;-70
2023/08/03 04:54:40;;;;;;;5.67;2.27;;;;;;;;;;5035574;28;20236;-71
2023/08/03 04:57:06;;;;;;;3.10;2.10;;;;;;;;;;5053136;28;20570;-71
2023/08/03 04:59:32;;;;;;;3.40;2.30;;;;;;;;;;5035645;28;20182;-70
2023/08/03 05:01:58;;;;;;;6.17;2.20;;;;;;;;;;5053303;28;20182;-70
2023/08/03 05:04:24;;;;;;;3.50;2.10;;;;;;;;;;5053139;28;20205;-70
2023/08/03 05:06:52;;;;;;;3.07;2.10;;;;;;;;;;5053158;28;20218;-71
2023/08/03 05:09:18;;;;;;;3.77;2.20;;;;;;;;;;5053235;28;20591;-71
2023/08/03 05:11:44;;;;;;;3.47;2.00;;;;;;;;;;5052685;28;20182;-71
2023/08/03 05:14:09;;;;;;;3.30;1.87;;;;;;;;;;5035668;28;20182;-70
2023/08/03 05:16:35;;;;;;;5.60;2.47;;;;;;;;;;5053318;28;20206;-71
2023/08/03 05:19:01;;;;;;;4.77;2.07;;;;;;;;;;5053908;28;20178;-71
2023/08/03 05:21:27;;;;;;;5.60;1.83;;;;;;;;;;5055865;28;20214;-71
2023/08/03 05:23:53;;;;;;;5.30;1.90;;;;;;;;;;5053282;28;20209;-70
2023/08/03 05:26:19;;;;;;;3.47;1.83;;;;;;;;;;5035608;28;20218;-72
2023/08/03 05:28:45;;;;;;;4.53;2.40;;;;;;;;;;5053175;28;20174;-71
2023/08/03 05:31:11;;;;;;;4.50;2.07;;;;;;;;;;5035633;28;20593;-70
2023/08/03 05:33:37;;;;;;;3.50;1.80;;;;;;;;;;5035885;28;20594;-70
2023/08/03 05:36:03;;;;;;;5.93;1.87;;;;;;;;;;5036466;28;20226;-70
2023/08/03 05:38:29;;;;;;;4.53;1.87;;;;;;;;;;5053701;28;20217;-70
2023/08/03 05:40:55;;;;;;;4.10;1.77;;;;;;;;;;5053270;28;20178;-70
2023/08/03 05:43:24;;;;;;;3.07;1.80;;;;;;;;;;5052947;28;20206;-71
2023/08/03 05:45:50;;;;;;;2.97;1.60;;;;;;;;;;5052821;28;20198;-70
2023/08/03 05:48:16;;;;;;;3.47;1.60;;;;;;;;;;5034918;28;20171;-70
2023/08/03 05:50:49;;;;;;;5.27;1.93;;;;;;;;;;5052695;28;20179;-70
2023/08/03 05:53:16;;;;;;;3.43;1.50;;;;;;;;;;5052672;28;20648;-71
2023/08/03 05:55:42;;;;;;;2.50;1.93;;;;;;;;;;5034853;28;20189;-70
2023/08/03 05:58:12;;;;;;;2.40;1.70;;;;;;;;;;5052489;28;20263;-70
2023/08/03 06:00:40;;;;;;;2.23;1.70;;;;;;;;;;5052861;28;20229;-70
2023/08/03 06:03:06;;;;;;;2.33;1.90;;;;;;;;;;5052967;28;20170;-71
2023/08/03 06:05:42;;;;;;;5.43;1.90;;;;;;;;;;5034682;28;20190;-70
2023/08/03 06:08:12;;;;;;;2.87;2.00;;;;;;;;;;5052453;28;20185;-71
2023/08/03 06:10:38;;;;;;;5.53;2.50;;;;;;;;;;5034809;28;20201;-71
2023/08/03 06:13:04;;;;;;;3.30;1.90;;;;;;;;;;5035658;28;20174;-71
2023/08/03 06:15:30;;;;;;;4.97;2.50;;;;;;;;;;5054868;28;20686;-71
2023/08/03 06:18:01;;;;;;;2.83;2.00;;;;;;;;;;5052625;28;20222;-71
2023/08/03 06:20:27;;;;;;;5.40;2.50;;;;;;;;;;5052719;28;20621;-71
2023/08/03 06:22:53;;;;;;;7.83;2.83;;;;;;;;;;5053794;28;20183;-71
2023/08/03 06:25:21;;;;;;;6.03;2.50;;;;;;;;;;5056115;28;20232;-71
2023/08/03 06:27:47;;;;;;;6.50;2.90;;;;;;;;;;5055929;28;20713;-71
2023/08/03 06:30:14;;;;;;;8.80;3.27;;;;;;;;;;5055935;28;20551;-71
2023/08/03 06:32:39;;;;;;;5.63;3.27;;;;;;;;;;5056032;28;20175;-71
2023/08/03 06:35:06;;;;;;;5.07;3.07;;;;;;;;;;5055846;28;20179;-71
2023/08/03 06:37:31;;;;;;;7.23;2.80;;;;;;;;;;5037976;28;20206;-72
2023/08/03 06:39:57;;;;;;;5.30;3.03;;;;;;;;;;5037975;28;20208;-71
2023/08/03 06:42:23;;;;;;;5.77;2.60;;;;;;;;;;5037925;28;20187;-72
2023/08/03 06:44:50;;;;;;;5.03;2.70;;;;;;;;;;5055897;28;20197;-72
2023/08/03 06:47:16;;;;;;;7.20;2.70;;;;;;;;;;5055687;28;20217;-71
2023/08/03 06:49:42;;;;;;;4.87;2.40;;;;;;;;;;5037822;28;20719;-72
2023/08/03 06:52:08;;;;;;;3.00;2.60;;;;;;;;;;5055589;28;20202;-72
2023/08/03 06:54:34;;;;;;;5.10;2.63;;;;;;;;;;5037510;28;20261;-72
2023/08/03 06:57:00;;;;;;;5.30;2.87;;;;;;;;;;5037546;28;20260;-72
2023/08/03 06:59:26;;;;;;;4.93;2.60;;;;;;;;;;5037549;28;20187;-72
2023/08/03 07:01:52;;;;;;;5.77;2.90;;;;;;;;;;5037491;28;20183;-72
2023/08/03 07:04:18;;;;;;;4.53;2.70;;;;;;;;;;5055335;28;20194;-72
2023/08/03 07:06:48;;;;;;;4.10;2.50;;;;;;;;;;5055818;28;20209;-72
2023/08/03 07:09:14;;;;;;;4.10;2.43;;;;;;;;;;5038417;28;20523;-72
2023/08/03 07:11:40;;;;;;;4.33;2.73;;;;;;;;;;5037497;28;20182;-72
2023/08/03 07:14:08;;;;;;;4.07;2.50;;;;;;;;;;5055145;28;20232;-72
2023/08/03 07:16:36;;;;;;;4.80;2.73;;;;;;;;;;5054968;28;20577;-72
2023/08/03 07:19:02;;;;;;;4.53;2.67;;;;;;;;;;5037295;28;20184;-72
2023/08/03 07:21:28;;;;;;;5.13;2.53;;;;;;;;;;5055100;28;20299;-71
2023/08/03 07:23:54;;;;;;;4.53;2.47;;;;;;;;;;5037244;28;20178;-72
2023/08/03 07:26:20;;;;;;;3.97;3.07;;;;;;;;;;5037978;28;20244;-71
2023/08/03 07:28:46;;;;;;;3.40;2.70;;;;;;;;;;5054916;28;20181;-72
2023/08/03 07:31:14;;;;;;;3.30;3.00;;;;;;;;;;5054743;28;20170;-72
2023/08/03 07:33:40;;;;;;;8.23;2.90;;;;;;;;;;5054498;28;20253;-72
2023/08/03 07:36:06;;;;;;;5.07;3.07;;;;;;;;;;5054592;28;20248;-72
2023/08/03 07:38:32;;;;;;;4.27;2.90;;;;;;;;;;5036677;28;20183;-71
2023/08/03 07:40:58;;;;;;;4.97;2.53;;;;;;;;;;5054449;28;20503;-73
2023/08/03 07:43:24;;;;;;;5.37;2.57;;;;;;;;;;5037302;28;20318;-72
2023/08/03 07:45:50;;;;;;;4.33;2.93;;;;;;;;;;5036454;28;20279;-72
2023/08/03 07:48:16;;;;;;;5.07;2.80;;;;;;;;;;5055057;28;20505;-72
2023/08/03 07:50:43;;;;;;;8.00;3.20;;;;;;;;;;5037091;28;20210;-72
2023/08/03 07:53:09;;;;;;;5.07;3.27;;;;;;;;;;5036431;28;20186;-72
2023/08/03 07:55:35;;;;;;;5.83;3.27;;;;;;;;;;5036734;28;20178;-72
2023/08/03 07:58:00;;;;;;;4.63;3.30;;;;;;;;;;5036375;28;20209;-72
2023/08/03 08:00:26;;;;;;;6.97;3.13;;;;;;;;;;5055822;28;20179;-72
2023/08/03 08:02:52;;;;;;;8.00;3.00;;;;;;;;;;5054705;28;20649;-72
2023/08/03 08:05:18;;;;;;;7.67;3.67;;;;;;;;;;5055176;28;20182;-72
2023/08/03 08:07:44;;;;;;;6.80;3.47;;;;;;;;;;5036864;28;20267;-71
2023/08/03 08:10:13;;;;;;;7.13;3.20;;;;;;;;;;5055205;28;20185;-72
2023/08/03 08:12:39;;;;;;;6.37;2.90;;;;;;;;;;5054647;28;20558;-72
2023/08/03 08:15:05;;;;;;;3.77;2.57;;;;;;;;;;5054686;28;20174;-72
2023/08/03 08:17:31;;;;;;;7.60;3.27;;;;;;;;;;5054126;28;20580;-71
2023/08/03 08:19:57;;;;;;;5.63;3.03;;;;;;;;;;5054904;28;20174;-71
2023/08/03 08:22:23;;;;;;;4.13;2.23;;;;;;;;;;5036309;28;20186;-71
2023/08/03 08:24:49;;;;;;;3.43;2.40;;;;;;;;;;5054012;28;20190;-71
2023/08/03 08:27:16;;;;;;;6.07;2.40;;;;;;;;;;5035639;28;20252;-71
2023/08/03 08:29:45;;;;;;;5.40;2.53;;;;;;;;;;5035725;28;20210;-71
2023/08/03 08:32:10;;;;;;;4.30;2.57;;;;;;;;;;5035724;28;20175;-71
2023/08/03 08:34:36;;;;;;;6.73;2.67;;;;;;;;;;5035883;28;20240;-71
2023/08/03 08:37:02;;;;;;;6.17;2.60;;;;;;;;;;5053839;28;20252;-71
2023/08/03 08:39:31;;;;;;;3.40;2.43;;;;;;;;;;5053875;28;20255;-71
2023/08/03 08:41:57;;;;;;;5.63;2.77;;;;;;;;;;5036308;28;20282;-71
2023/08/03 08:44:23;;;;;;;6.30;3.13;;;;;;;;;;5054210;28;20257;-71
2023/08/03 08:46:49;;;;;;;6.90;3.00;;;;;;;;;;5052994;28;20305;-70
2023/08/03 08:49:15;;;;;;;5.67;2.60;;;;;;;;;;5037929;28;20182;-70
2023/08/03 08:51:42;;;;;;;4.47;2.90;;;;;;;;;;5055208;28;20220;-70
2023/08/03 08:54:08;;;;;;;3.90;2.17;;;;;;;;;;5055921;28;20167;-69
2023/08/03 08:56:35;;;;;;;5.83;2.23;;;;;;;;;;5054615;28;20295;-70
2023/08/03 08:59:02;;;;;;;4.70;2.50;;;;;;;;;;5036128;28;20190;-70
2023/08/03 09:01:28;;;;;;;4.00;2.70;;;;;;;;;;5053756;28;20638;-70
2023/08/03 09:03:56;;;;;;;5.53;2.13;;;;;;;;;;5036140;28;20192;-70
2023/08/03 09:06:22;;;;;;;4.63;2.13;;;;;;;;;;5052984;28;20695;-70
2023/08/03 09:08:49;;;;;;;4.43;2.10;;;;;;;;;;5053008;28;20540;-69
2023/08/03 09:11:16;;;;;;;5.83;2.10;;;;;;;;;;5035024;28;20695;-70
2023/08/03 09:13:42;;;;;;;4.83;2.27;;;;;;;;;;5053249;28;20206;-70
2023/08/03 09:16:21;;;;;;;4.80;2.20;;;;;;;;;;5052973;28;20237;-71
2023/08/03 09:18:47;;;;;;;4.53;2.57;;;;;;;;;;5052873;28;20166;-70
2023/08/03 09:21:14;;;;;;;5.30;2.03;;;;;;;;;;5034931;28;20240;-69
2023/08/03 09:23:40;;;;;;;4.17;2.23;;;;;;;;;;5034832;28;20178;-70
2023/08/03 09:26:06;;;;;;;2.97;1.90;;;;;;;;;;5034684;28;20213;-70
2023/08/03 09:28:36;;;;;;;3.53;2.20;;;;;;;;;;5052914;28;20544;-70
2023/08/03 09:31:03;;;;;;;5.93;1.97;;;;;;;;;;5034712;28;20179;-70
2023/08/03 09:33:29;;;;;;;3.57;2.10;;;;;;;;;;5052654;28;20283;-70
2023/08/03 09:36:05;;;;;;;5.63;2.43;;;;;;;;;;5034613;28;20174;-70
2023/08/03 09:38:31;;;;;;;5.33;2.00;;;;;;;;;;5034884;28;20189;-70
2023/08/03 09:40:58;;;;;;;4.17;2.00;;;;;;;;;;5034902;28;20232;-69
2023/08/03 09:43:24;;;;;;;6.03;2.37;;;;;;;;;;5052578;28;20261;-70
2023/08/03 09:45:51;;;;;;;4.77;1.97;;;;;;;;;;5034662;28;20209;-69
2023/08/03 09:48:19;;;;;;;4.97;2.33;;;;;;;;;;5053790;28;20189;-70
2023/08/03 09:50:46;;;;;;;3.17;2.00;;;;;;;;;;5052504;28;20175;-70
2023/08/03 09:53:16;;;;;;;5.20;2.27;;;;;;;;;;5052745;28;20551;-70
2023/08/03 09:55:47;;;;;;;6.83;2.20;;;;;;;;;;5052662;28;20182;-69
2023/08/03 09:58:14;;;;;;;7.57;2.37;;;;;;;;;;5055005;28;20165;-69
2023/08/03 10:00:43;;;;;;;3.57;2.30;;;;;;;;;;5056618;28;20261;-69
2023/08/03 10:03:18;;;;;;;3.83;2.13;;;;;;;;;;5056568;28;20178;-69
2023/08/03 10:05:51;;;;;;;6.90;2.20;;;;;;;;;;5056577;28;20166;-69
2023/08/03 10:08:27;;;;;;;3.37;2.10;;;;;;;;;;5056436;28;20178;-70
2023/08/03 10:10:59;;;;;;;5.40;2.40;;;;;;;;;;5056776;28;20169;-69
2023/08/03 10:13:26;;;;;;;4.60;1.90;;;;;;;;;;5056763;28;20183;-69
2023/08/03 10:15:52;;;;;;;5.93;2.27;;;;;;;;;;5038194;28;20191;-69
2023/08/03 10:18:18;;;;;;;5.90;2.07;;;;;;;;;;5056171;28;20228;-69
2023/08/03 10:20:44;;;;;;;7.20;2.43;;;;;;;;;;5056197;28;20178;-69
2023/08/03 10:23:21;;;;;;;8.57;2.33;;;;;;;;;;5056143;28;20187;-69
2023/08/03 10:25:57;;;;;;;6.20;2.30;;;;;;;;;;5038145;28;20302;-69
2023/08/03 10:28:26;;;;;;;5.03;2.37;;;;;;;;;;5037980;28;20232;-68
2023/08/03 10:31:07;;;;;;;5.10;1.87;;;;;;;;;;5037895;28;20178;-68
2023/08/03 10:33:49;;;;;;;4.10;2.07;;;;;;;;;;5038104;28;20182;-69
2023/08/03 10:36:30;;;;;;;5.37;2.20;;;;;;;;;;5037875;28;20300;-68
2023/08/03 10:38:59;;;;;;;3.00;2.00;;;;;;;;;;5056130;28;20612;-68
2023/08/03 10:41:27;;;;;;;4.47;2.13;;;;;;;;;;5039229;28;20213;-68
2023/08/03 10:44:14;;;;;;;9.83;2.63;;;;;;;;;;5038566;28;20269;-69
2023/08/03 10:46:48;;;;;;;5.00;2.13;;;;;;;;;;5055776;28;20272;-69
2023/08/03 10:49:19;;;;;;;3.87;2.10;;;;;;;;;;5055653;28;20174;-69
2023/08/03 10:51:55;;;;;;;5.50;2.43;;;;;;;;;;5055599;28;20182;-69
2023/08/03 10:54:22;;;;;;;6.03;2.50;;;;;;;;;;5055931;28;20623;-69
2023/08/03 10:57:05;;;;;;;3.70;2.13;;;;;;;;;;5055285;28;20208;-69
2023/08/03 10:59:41;;;;;;;6.53;4.47;;;;;;;;;;5055507;28;20197;-68
2023/08/03 11:02:10;;;;;;;2.73;2.13;;;;;;;;;;5055400;28;20178;-69
2023/08/03 11:04:36;;;;;;;4.33;2.40;;;;;;;;;;5037495;28;20182;-69
2023/08/03 11:07:03;;;;;;;6.30;2.50;;;;;;;;;;5037178;28;20276;-69
2023/08/03 11:09:30;;;;;;;5.00;3.00;;;;;;;;;;5036310;28;20182;-68
2023/08/03 11:11:57;;;;;;;7.03;3.80;;;;;;;;;;5055552;28;20200;-68
2023/08/03 11:14:23;;;;;;;5.60;2.90;;;;;;;;;;5037345;28;20179;-68
2023/08/03 11:16:49;;;;;;;7.37;3.00;;;;;;;;;;5037057;28;20202;-69
2023/08/03 11:19:15;;;;;;;7.07;2.30;;;;;;;;;;5037128;28;20270;-68
2023/08/03 11:21:42;;;;;;;4.03;2.60;;;;;;;;;;5055471;28;20267;-69
2023/08/03 11:24:08;;;;;;;5.27;2.87;;;;;;;;;;5055084;28;20183;-69
2023/08/03 11:26:34;;;;;;;5.03;2.87;;;;;;;;;;5037129;28;20221;-69
2023/08/03 11:29:00;;;;;;;4.73;2.17;;;;;;;;;;5055752;28;20182;-69
2023/08/03 11:31:26;;;;;;;3.50;2.13;;;;;;;;;;5055501;28;20257;-69
2023/08/03 11:33:52;;;;;;;7.20;2.60;;;;;;;;;;5045071;28;20695;-68
2023/08/03 11:36:19;;;;;;;3.70;2.37;;;;;;;;;;5056204;28;20202;-68
2023/08/03 11:38:45;;;;;;;5.67;2.63;;;;;;;;;;5055260;28;20179;-68
2023/08/03 11:41:22;;;;;;;4.53;2.20;;;;;;;;;;5055013;28;20178;-69
2023/08/03 11:43:48;;;;;;;3.30;2.13;;;;;;;;;;5037022;28;20178;-68
2023/08/03 11:46:14;;;;;;;2.40;1.73;;;;;;;;;;5054386;28;20253;-68
2023/08/03 11:48:44;;;;;;;5.97;2.23;;;;;;;;;;5055047;28;20163;-69
2023/08/03 11:51:10;;;;;;;6.47;2.77;;;;;;;;;;5036691;28;20182;-69
2023/08/03 11:53:40;;;;;;;4.80;3.00;;;;;;;;;;5036538;28;20182;-68
2023/08/03 11:56:07;;;;;;;6.27;3.57;;;;;;;;;;5054556;28;20699;-69
2023/08/03 11:58:35;;;;;;;5.57;2.70;;;;;;;;;;5054320;28;20659;-69
2023/08/03 12:01:04;;;;;;;4.87;3.00;;;;;;;;;;5054427;28;20175;-69
2023/08/03 12:03:34;;;;;;;3.20;2.33;;;;;;;;;;5054457;28;20232;-69
2023/08/03 12:06:01;;;;;;;4.87;2.70;;;;;;;;;;5036511;28;20583;-68
2023/08/03 12:08:27;;;;;;;3.07;2.30;;;;;;;;;;5054209;28;20576;-69
2023/08/03 12:11:00;;;;;;;2.73;2.07;;;;;;;;;;5036455;28;20239;-68
2023/08/03 12:13:26;;;;;;;2.07;1.83;;;;;;;;;;5054505;28;20221;-68
2023/08/03 12:15:53;;;;;;;4.27;2.50;;;;;;;;;;5054749;28;20637;-68
2023/08/03 12:18:20;;;;;;;3.30;2.67;;;;;;;;;;5054402;28;20664;-68
2023/08/03 12:20:47;;;;;;;3.43;2.27;;;;;;;;;;5036239;28;20213;-69
2023/08/03 12:23:13;;;;;;;4.47;2.40;;;;;;;;;;5054327;28;20259;-69
2023/08/03 12:25:39;;;;;;;3.07;2.17;;;;;;;;;;5036340;28;20178;-69
2023/08/03 12:28:05;;;;;;;6.10;2.73;;;;;;;;;;5044453;28;20662;-69
2023/08/03 12:30:31;;;;;;;6.70;3.17;;;;;;;;;;5036794;28;20206;-69
2023/08/03 12:32:57;;;;;;;3.10;2.23;;;;;;;;;;5054056;28;20170;-69
2023/08/03 12:35:23;;;;;;;3.93;2.33;;;;;;;;;;5036110;28;20174;-69
2023/08/03 12:37:49;;;;;;;3.37;2.50;;;;;;;;;;5054037;28;20199;-69
2023/08/03 12:40:16;;;;;;;3.40;2.17;;;;;;;;;;5036110;28;20328;-69
2023/08/03 12:42:42;;;;;;;5.27;2.43;;;;;;;;;;5036088;28;20178;-69
2023/08/03 12:45:08;;;;;;;2.10;1.70;;;;;;;;;;5053683;28;20258;-69
2023/08/03 12:47:35;;;;;;;5.97;2.53;;;;;;;;;;5049844;22;20222;-65
2023/08/03 12:50:01;;;;;;;5.10;2.67;;;;;;;;;;5019277;28;20167;-65
2023/08/03 12:52:27;;;;;;;5.73;2.30;;;;;;;;;;5018437;28;20176;-66
2023/08/03 12:54:53;;;;;;;5.40;2.50;;;;;;;;;;5018312;28;20262;-65
2023/08/03 12:57:19;;;;;;;3.57;2.20;;;;;;;;;;5018648;28;20175;-65
2023/08/03 12:59:45;;;;;;;3.60;2.03;;;;;;;;;;5017944;28;20176;-66
2023/08/03 13:02:11;;;;;;;2.90;2.30;;;;;;;;;;5018563;28;20182;-65
2023/08/03 13:04:37;;;;;;;2.53;2.30;;;;;;;;;;5018392;28;20182;-66
2023/08/03 13:07:03;;;;;;;3.37;1.90;;;;;;;;;;5015187;28;20204;-65
2023/08/03 13:09:29;;;;;;;3.20;1.90;;;;;;;;;;5012783;28;20724;-65
2023/08/03 13:11:59;;;;;;;3.47;1.80;;;;;;;;;;5012614;28;20278;-65
2023/08/03 13:14:25;;;;;;;3.13;1.70;;;;;;;;;;5014222;28;20226;-65
2023/08/03 13:16:51;;;;;;;2.83;1.70;;;;;;;;;;5014630;28;20196;-65
2023/08/03 13:19:17;;;;;;;1.73;1.47;;;;;;;;;;5012563;28;20671;-65
2023/08/03 13:21:43;;;;;;;3.00;1.77;;;;;;;;;;5013902;28;20262;-65
2023/08/03 13:24:09;;;;;;;1.63;1.50;;;;;;;;;;5012586;28;20183;-66
2023/08/03 13:26:35;;;;;;;2.20;1.50;;;;;;;;;;5013708;28;20286;-65
2023/08/03 13:29:01;;;;;;;2.73;1.70;;;;;;;;;;5013969;28;20595;-65
2023/08/03 13:31:27;;;;;;;2.73;1.73;;;;;;;;;;5012667;28;20270;-65
2023/08/03 13:33:53;;;;;;;2.47;1.67;;;;;;;;;;5017025;28;20617;-65
2023/08/03 13:36:21;;;;;;;2.20;2.00;;;;;;;;;;5016791;28;20192;-65
2023/08/03 13:38:47;;;;;;;3.23;1.90;;;;;;;;;;5016617;28;20207;-65
2023/08/03 13:41:13;;;;;;;2.17;1.50;;;;;;;;;;5016469;28;20186;-65
2023/08/03 13:43:41;;;;;;;7.40;5.13;;;;;;;;;;5018328;28;20262;-65
2023/08/03 13:46:07;;;;;;;4.27;3.47;;;;;;;;;;5016543;28;20220;-65
2023/08/03 13:48:33;;;;;;;6.43;5.10;;;;;;;;;;5016413;28;20575;-65
2023/08/03 13:50:59;;;;;;;3.90;2.30;;;;;;;;;;5017777;28;20187;-65
2023/08/03 13:53:25;;;;;;;3.97;1.60;;;;;;;;;;5016111;28;20190;-65
2023/08/03 13:55:51;;;;;;;2.50;2.00;;;;;;;;;;5017751;28;20176;-65
2023/08/03 13:58:17;;;;;;;4.73;2.00;;;;;;;;;;5015973;28;20208;-67
2023/08/03 14:00:43;;;;;;;4.03;2.10;;;;;;;;;;5017470;28;20176;-65
2023/08/03 14:03:09;;;;;;;8.50;3.00;;;;;;;;;;5016023;28;20187;-65
2023/08/03 14:05:35;;;;;;;3.10;2.03;;;;;;;;;;5016934;28;20179;-65
2023/08/03 14:08:01;;;;;;;3.97;2.10;;;;;;;;;;5017064;28;20200;-65
2023/08/03 14:10:27;;;;;;;2.13;1.70;;;;;;;;;;5017161;28;20190;-65
2023/08/03 14:12:53;;;;;;;4.83;2.97;;;;;;;;;;5017050;28;20231;-65
2023/08/03 14:15:19;;;;;;;5.43;3.33;;;;;;;;;;5016933;28;20207;-65
2023/08/03 14:17:45;;;;;;;3.50;2.00;;;;;;;;;;5017003;28;20204;-66
2023/08/03 14:20:11;;;;;;;6.13;4.10;;;;;;;;;;5017078;28;20180;-66
2023/08/03 14:22:37;;;;;;;3.03;1.70;;;;;;;;;;5015573;28;20191;-66
2023/08/03 14:25:03;;;;;;;1.67;1.40;;;;;;;;;;5016779;28;20187;-66
2023/08/03 14:27:29;;;;;;;4.87;2.00;;;;;;;;;;5015415;28;20207;-66
2023/08/03 14:29:55;;;;;;;2.97;1.73;;;;;;;;;;5017238;28;20263;-67
2023/08/03 14:32:21;;;;;;;2.33;1.23;;;;;;;;;;5016664;28;20179;-65
2023/08/03 14:34:47;;;;;;;5.43;1.90;;;;;;;;;;5017008;28;20176;-65
2023/08/03 14:37:13;;;;;;;5.67;1.90;;;;;;;;;;5015353;28;20190;-65
2023/08/03 14:39:39;;;;;;;4.17;1.90;;;;;;;;;;5016606;28;20282;-65
2023/08/03 14:42:06;;;;;;;2.33;1.50;;;;;;;;;;5015264;28;20184;-65